Terminal Aerodrome Forecast
Issued by NWS

Home | Current Version | Previous Version | Text Only | Print | Product List | Glossary On
Versions: 1 2 3 4 5 6 7 8 9 10 11 12
916
FTUS46 KSTO 191144
TAFSMF
TAF
KSMF 191144Z 1912/2012 16010KT P6SM SKC
     FM191800 18010KT P6SM SCT015 BKN050
     FM200000 19015KT P6SM VCSH OVC050=

USA.gov is the U.S. government's official web portal to all federal, state and local government web resources and services.